HAZ2698 ZPPP-ZSHC
Flight info
| Callsign | HAZ2698 |
|---|---|
| Flight time | 2h 19m |
| Altitude | 37100 |
| Route | NODIB4Q NODIB W137 LPS A581 IDGAG W80 XSH DCT JDZ DCT TXN G204 OREXA OREXA81 |
| Aircraft | B77W/H-SDE1E2E3FGHIJ2J3J4J5M1RWXY/LB1D1 |
Departure
| Time | 2026-05-04 12:42 |
|---|---|
| Airport | Kunming Changshui International Airport (ZPPP) |
Arrival
| Time | 2026-05-04 15:01 |
|---|---|
| Airport | Hangzhou Xiaoshan International Airport (ZSHC) |
| Time | Latitude | Longitude | Altitude | Speed | Heading |
|---|---|---|---|---|---|
| 2026-05-04 12:05 | 25.10973 | 102.93846 | 6918 ft | 0 kts | 38° |
| 2026-05-04 12:16 | 25.10967 | 102.93842 | 6918 ft | 2 kts | 38° |
| 2026-05-04 12:16 | 25.10955 | 102.93832 | 6918 ft | 2 kts | 38° |
| 2026-05-04 12:17 | 25.10943 | 102.93821 | 6918 ft | 2 kts | 38° |
| 2026-05-04 12:17 | 25.10936 | 102.93815 | 6918 ft | 1 kts | 38° |
| 2026-05-04 12:17 | 25.10923 | 102.93806 | 6918 ft | 2 kts | 19° |
| 2026-05-04 12:17 | 25.10909 | 102.93803 | 6918 ft | 2 kts | 357° |
| 2026-05-04 12:18 | 25.10894 | 102.93806 | 6918 ft | 2 kts | 337° |
| 2026-05-04 12:18 | 25.10881 | 102.93814 | 6918 ft | 2 kts | 317° |
| 2026-05-04 12:18 | 25.10875 | 102.93821 | 6918 ft | 1 kts | 307° |
| 2026-05-04 12:18 | 25.10873 | 102.93823 | 6918 ft | 0 kts | 307° |
| 2026-05-04 12:19 | 25.10876 | 102.93819 | 6918 ft | 2 kts | 307° |
| 2026-05-04 12:20 | 25.10895 | 102.93792 | 6918 ft | 4 kts | 307° |
| 2026-05-04 12:20 | 25.10913 | 102.93762 | 6918 ft | 6 kts | 298° |
| 2026-05-04 12:20 | 25.10916 | 102.93711 | 6918 ft | 6 kts | 244° |
| 2026-05-04 12:20 | 25.10888 | 102.93678 | 6918 ft | 5 kts | 221° |
| 2026-05-04 12:21 | 25.10859 | 102.93652 | 6918 ft | 6 kts | 217° |
| 2026-05-04 12:21 | 25.10811 | 102.93605 | 6918 ft | 9 kts | 237° |
| 2026-05-04 12:21 | 25.10820 | 102.93540 | 6918 ft | 9 kts | 305° |
| 2026-05-04 12:21 | 25.10872 | 102.93465 | 6918 ft | 15 kts | 308° |
| 2026-05-04 12:22 | 25.10954 | 102.93352 | 6918 ft | 20 kts | 308° |
| 2026-05-04 12:22 | 25.11037 | 102.93237 | 6918 ft | 18 kts | 309° |
| 2026-05-04 12:22 | 25.11113 | 102.93133 | 6918 ft | 16 kts | 309° |
| 2026-05-04 12:22 | 25.11180 | 102.93040 | 6918 ft | 14 kts | 308° |
| 2026-05-04 12:23 | 25.11238 | 102.92957 | 6918 ft | 12 kts | 307° |
| 2026-05-04 12:23 | 25.11295 | 102.92898 | 6918 ft | 10 kts | 346° |
| 2026-05-04 12:23 | 25.11378 | 102.92944 | 6918 ft | 18 kts | 39° |
| 2026-05-04 12:23 | 25.11510 | 102.93059 | 6918 ft | 27 kts | 39° |
| 2026-05-04 12:24 | 25.11651 | 102.93185 | 6918 ft | 24 kts | 39° |
| 2026-05-04 12:24 | 25.11782 | 102.93295 | 6918 ft | 23 kts | 38° |
| 2026-05-04 12:24 | 25.11914 | 102.93409 | 6918 ft | 24 kts | 38° |
| 2026-05-04 12:24 | 25.12047 | 102.93524 | 6918 ft | 24 kts | 38° |
| 2026-05-04 12:25 | 25.12180 | 102.93642 | 6918 ft | 24 kts | 38° |
| 2026-05-04 12:25 | 25.12271 | 102.93721 | 6918 ft | 24 kts | 38° |
| 2026-05-04 12:25 | 25.12454 | 102.93880 | 6918 ft | 25 kts | 38° |
| 2026-05-04 12:25 | 25.12592 | 102.94001 | 6918 ft | 24 kts | 39° |
| 2026-05-04 12:26 | 25.12720 | 102.94113 | 6918 ft | 22 kts | 38° |
| 2026-05-04 12:26 | 25.12792 | 102.94177 | 6918 ft | 7 kts | 38° |
| 2026-05-04 12:26 | 25.12803 | 102.94185 | 6918 ft | 0 kts | 38° |
| 2026-05-04 12:27 | 25.12811 | 102.94192 | 6918 ft | 2 kts | 38° |
| 2026-05-04 12:27 | 25.12819 | 102.94199 | 6918 ft | 1 kts | 38° |
| 2026-05-04 12:27 | 25.12823 | 102.94203 | 6918 ft | 1 kts | 38° |
| 2026-05-04 12:28 | 25.12829 | 102.94209 | 6918 ft | 1 kts | 38° |
| 2026-05-04 12:28 | 25.12842 | 102.94220 | 6918 ft | 7 kts | 38° |
| 2026-05-04 12:29 | 25.12881 | 102.94254 | 6918 ft | 3 kts | 39° |
| 2026-05-04 12:29 | 25.12884 | 102.94257 | 6918 ft | 0 kts | 39° |
| 2026-05-04 12:31 | 25.12889 | 102.94260 | 6918 ft | 3 kts | 38° |
| 2026-05-04 12:31 | 25.12914 | 102.94276 | 6918 ft | 3 kts | 21° |
| 2026-05-04 12:31 | 25.12936 | 102.94280 | 6918 ft | 2 kts | 356° |
| 2026-05-04 12:32 | 25.12949 | 102.94276 | 6918 ft | 0 kts | 334° |
| 2026-05-04 12:37 | 25.12961 | 102.94267 | 6918 ft | 4 kts | 315° |
| 2026-05-04 12:37 | 25.12965 | 102.94261 | 6918 ft | 0 kts | 311° |
| 2026-05-04 12:38 | 25.12966 | 102.94259 | 6918 ft | 2 kts | 311° |
| 2026-05-04 12:39 | 25.12992 | 102.94228 | 6918 ft | 8 kts | 311° |
| 2026-05-04 12:39 | 25.13024 | 102.94179 | 6918 ft | 7 kts | 291° |
| 2026-05-04 12:39 | 25.13017 | 102.94134 | 6918 ft | 5 kts | 232° |
| 2026-05-04 12:39 | 25.12995 | 102.94111 | 6918 ft | 0 kts | 218° |
| 2026-05-04 12:41 | 25.12980 | 102.94098 | 6918 ft | 9 kts | 218° |
| 2026-05-04 12:41 | 25.12880 | 102.94012 | 6918 ft | 47 kts | 218° |
| 2026-05-04 12:41 | 25.12252 | 102.93464 | 6918 ft | 121 kts | 219° |
| 2026-05-04 12:41 | 25.11462 | 102.92775 | 6919 ft | 167 kts | 218° |
| 2026-05-04 12:42 | 25.10456 | 102.91893 | 7023 ft | 197 kts | 220° |
| 2026-05-04 12:42 | 25.09415 | 102.90923 | 7548 ft | 197 kts | 226° |
| 2026-05-04 12:42 | 25.08599 | 102.89660 | 8061 ft | 211 kts | 242° |
| 2026-05-04 12:42 | 25.07830 | 102.88229 | 8413 ft | 226 kts | 237° |
| 2026-05-04 12:43 | 25.06887 | 102.86769 | 8775 ft | 243 kts | 232° |
| 2026-05-04 12:43 | 25.05539 | 102.85532 | 9078 ft | 264 kts | 206° |
| 2026-05-04 12:43 | 25.03676 | 102.85112 | 9444 ft | 284 kts | 177° |
| 2026-05-04 12:43 | 25.01786 | 102.85796 | 10117 ft | 294 kts | 152° |
| 2026-05-04 12:44 | 25.00025 | 102.87060 | 10575 ft | 311 kts | 148° |
| 2026-05-04 12:44 | 24.98826 | 102.87976 | 10816 ft | 324 kts | 148° |
| 2026-05-04 12:44 | 24.96253 | 102.89957 | 11333 ft | 348 kts | 148° |
| 2026-05-04 12:44 | 24.94271 | 102.91544 | 11702 ft | 366 kts | 143° |
| 2026-05-04 12:45 | 24.92391 | 102.93581 | 12037 ft | 387 kts | 132° |
| 2026-05-04 12:45 | 24.90830 | 102.96041 | 12410 ft | 405 kts | 121° |
| 2026-05-04 12:45 | 24.89657 | 102.98937 | 13017 ft | 415 kts | 109° |
| 2026-05-04 12:45 | 24.88977 | 103.02017 | 13641 ft | 422 kts | 98° |
| 2026-05-04 12:46 | 24.88796 | 103.05270 | 14351 ft | 426 kts | 87° |
| 2026-05-04 12:46 | 24.89137 | 103.08480 | 15067 ft | 429 kts | 76° |
| 2026-05-04 12:46 | 24.90004 | 103.11635 | 15764 ft | 431 kts | 65° |
| 2026-05-04 12:46 | 24.91349 | 103.14526 | 16477 ft | 431 kts | 54° |
| 2026-05-04 12:47 | 24.93185 | 103.17173 | 17181 ft | 431 kts | 44° |
| 2026-05-04 12:47 | 24.95285 | 103.19295 | 17812 ft | 430 kts | 33° |
| 2026-05-04 12:47 | 24.97032 | 103.20593 | 18262 ft | 430 kts | 26° |
| 2026-05-04 12:47 | 24.99736 | 103.22034 | 18916 ft | 429 kts | 19° |
| 2026-05-04 12:48 | 25.02482 | 103.23359 | 19701 ft | 431 kts | 21° |
| 2026-05-04 12:48 | 25.04303 | 103.24341 | 20239 ft | 432 kts | 23° |
| 2026-05-04 12:48 | 25.07826 | 103.26459 | 21049 ft | 441 kts | 26° |
| 2026-05-04 12:48 | 25.10496 | 103.28221 | 21579 ft | 448 kts | 27° |
| 2026-05-04 12:49 | 25.12272 | 103.29446 | 21962 ft | 452 kts | 28° |
| 2026-05-04 12:49 | 25.15818 | 103.31976 | 22801 ft | 456 kts | 29° |
| 2026-05-04 12:49 | 25.18449 | 103.33906 | 23355 ft | 460 kts | 30° |
| 2026-05-04 12:49 | 25.21114 | 103.35889 | 23861 ft | 465 kts | 30° |
| 2026-05-04 12:50 | 25.23791 | 103.37904 | 24392 ft | 469 kts | 30° |
| 2026-05-04 12:50 | 25.26489 | 103.39951 | 24926 ft | 473 kts | 30° |
| 2026-05-04 12:50 | 25.28298 | 103.41330 | 25286 ft | 476 kts | 30° |
| 2026-05-04 12:50 | 25.31975 | 103.44146 | 26026 ft | 481 kts | 30° |
| 2026-05-04 12:51 | 25.34720 | 103.46256 | 26568 ft | 485 kts | 30° |
| 2026-05-04 12:51 | 25.37521 | 103.48413 | 27071 ft | 490 kts | 29° |
| 2026-05-04 12:51 | 25.40284 | 103.50546 | 27582 ft | 494 kts | 29° |
| 2026-05-04 12:51 | 25.43110 | 103.52731 | 28115 ft | 497 kts | 29° |
| 2026-05-04 12:52 | 25.45019 | 103.54208 | 28481 ft | 500 kts | 29° |
| 2026-05-04 12:52 | 25.47867 | 103.56414 | 28961 ft | 504 kts | 29° |
| 2026-05-04 12:52 | 25.51615 | 103.59590 | 29651 ft | 515 kts | 37° |
| 2026-05-04 12:52 | 25.53254 | 103.61423 | 30035 ft | 521 kts | 43° |
| 2026-05-04 12:53 | 25.55475 | 103.64603 | 30728 ft | 526 kts | 51° |
| 2026-05-04 12:53 | 25.57490 | 103.67990 | 31404 ft | 525 kts | 52° |
| 2026-05-04 12:53 | 25.59467 | 103.71378 | 31851 ft | 528 kts | 52° |
| 2026-05-04 12:53 | 25.61375 | 103.74657 | 32231 ft | 531 kts | 52° |
| 2026-05-04 12:54 | 25.64094 | 103.79336 | 32944 ft | 532 kts | 52° |
| 2026-05-04 12:54 | 25.65420 | 103.81621 | 33372 ft | 531 kts | 52° |
| 2026-05-04 12:54 | 25.67422 | 103.85076 | 34187 ft | 526 kts | 52° |
| 2026-05-04 12:54 | 25.70028 | 103.89577 | 35309 ft | 517 kts | 52° |
| 2026-05-04 12:55 | 25.71328 | 103.91823 | 35780 ft | 515 kts | 52° |
| 2026-05-04 12:55 | 25.73244 | 103.95132 | 36319 ft | 514 kts | 52° |
| 2026-05-04 12:55 | 25.75157 | 103.98439 | 36742 ft | 515 kts | 52° |
| 2026-05-04 12:55 | 25.77738 | 104.02903 | 37286 ft | 515 kts | 52° |
| 2026-05-04 12:56 | 25.79667 | 104.06243 | 37396 ft | 517 kts | 52° |
| 2026-05-04 12:56 | 25.82912 | 104.11785 | 37400 ft | 513 kts | 51° |
| 2026-05-04 12:57 | 25.86801 | 104.18391 | 37391 ft | 515 kts | 51° |
| 2026-05-04 12:57 | 25.90708 | 104.25044 | 37388 ft | 516 kts | 51° |
| 2026-05-04 12:58 | 25.95271 | 104.32831 | 37381 ft | 515 kts | 51° |
| 2026-05-04 12:58 | 25.98544 | 104.38425 | 37375 ft | 517 kts | 51° |
| 2026-05-04 12:59 | 26.03417 | 104.45926 | 37365 ft | 506 kts | 39° |
| 2026-05-04 12:59 | 26.07769 | 104.50240 | 37373 ft | 503 kts | 33° |
| 2026-05-04 13:00 | 26.13123 | 104.55205 | 37374 ft | 499 kts | 33° |
| 2026-05-04 13:00 | 26.18445 | 104.60142 | 37376 ft | 500 kts | 33° |
| 2026-05-04 13:01 | 26.24681 | 104.65939 | 37369 ft | 500 kts | 33° |
| 2026-05-04 13:01 | 26.29097 | 104.70051 | 37362 ft | 500 kts | 33° |
| 2026-05-04 13:02 | 26.39899 | 104.80127 | 37350 ft | 501 kts | 33° |
| 2026-05-04 13:03 | 26.45230 | 104.85111 | 37358 ft | 500 kts | 33° |
| 2026-05-04 13:03 | 26.50573 | 104.90112 | 37352 ft | 500 kts | 33° |
| 2026-05-04 13:04 | 26.55918 | 104.95121 | 37349 ft | 500 kts | 33° |
| 2026-05-04 13:04 | 26.61226 | 105.00163 | 37352 ft | 504 kts | 37° |
| 2026-05-04 13:04 | 26.63605 | 105.03093 | 37360 ft | 516 kts | 46° |
| 2026-05-04 13:05 | 26.65607 | 105.06465 | 37353 ft | 524 kts | 56° |
| 2026-05-04 13:05 | 26.68693 | 105.13796 | 37355 ft | 529 kts | 60° |
| 2026-05-04 13:06 | 26.71682 | 105.21261 | 37361 ft | 530 kts | 60° |
| 2026-05-04 13:06 | 26.74699 | 105.28803 | 37354 ft | 530 kts | 60° |
| 2026-05-04 13:07 | 26.77718 | 105.36354 | 37344 ft | 532 kts | 60° |
| 2026-05-04 13:07 | 26.80727 | 105.43891 | 37341 ft | 531 kts | 60° |
| 2026-05-04 13:08 | 26.83728 | 105.51417 | 37329 ft | 530 kts | 60° |
| 2026-05-04 13:08 | 26.86712 | 105.58914 | 37330 ft | 530 kts | 60° |
| 2026-05-04 13:09 | 26.89691 | 105.66412 | 37320 ft | 530 kts | 60° |
| 2026-05-04 13:09 | 26.92674 | 105.73933 | 37304 ft | 531 kts | 60° |
| 2026-05-04 13:10 | 26.95661 | 105.81477 | 37300 ft | 532 kts | 60° |
| 2026-05-04 13:10 | 26.98634 | 105.89003 | 37287 ft | 532 kts | 60° |
| 2026-05-04 13:11 | 27.01581 | 105.96475 | 37286 ft | 531 kts | 60° |
| 2026-05-04 13:11 | 27.04547 | 106.04002 | 37289 ft | 533 kts | 59° |
| 2026-05-04 13:12 | 27.07872 | 106.11343 | 37297 ft | 531 kts | 56° |
| 2026-05-04 13:12 | 27.11146 | 106.18424 | 37307 ft | 528 kts | 56° |
| 2026-05-04 13:13 | 27.14578 | 106.25897 | 37310 ft | 528 kts | 56° |
| 2026-05-04 13:13 | 27.17946 | 106.33266 | 37303 ft | 530 kts | 56° |
| 2026-05-04 13:14 | 27.21319 | 106.40672 | 37295 ft | 529 kts | 56° |
| 2026-05-04 13:14 | 27.24664 | 106.48023 | 37286 ft | 531 kts | 56° |
| 2026-05-04 13:15 | 27.28023 | 106.55426 | 37275 ft | 531 kts | 56° |
| 2026-05-04 13:15 | 27.31349 | 106.62772 | 37268 ft | 530 kts | 56° |
| 2026-05-04 13:16 | 27.34629 | 106.70029 | 37247 ft | 531 kts | 57° |
| 2026-05-04 13:16 | 27.37969 | 106.77440 | 37248 ft | 532 kts | 57° |
| 2026-05-04 13:17 | 27.41272 | 106.84814 | 37253 ft | 532 kts | 57° |
| 2026-05-04 13:17 | 27.44562 | 106.92176 | 37250 ft | 531 kts | 57° |
| 2026-05-04 13:18 | 27.47884 | 106.99617 | 37248 ft | 532 kts | 57° |
| 2026-05-04 13:18 | 27.51228 | 107.07014 | 37254 ft | 531 kts | 57° |
| 2026-05-04 13:19 | 27.54564 | 107.14387 | 37253 ft | 533 kts | 57° |
| 2026-05-04 13:19 | 27.57910 | 107.21806 | 37252 ft | 531 kts | 56° |
| 2026-05-04 13:20 | 27.61274 | 107.29263 | 37246 ft | 533 kts | 57° |
| 2026-05-04 13:20 | 27.64588 | 107.36625 | 37241 ft | 535 kts | 57° |
| 2026-05-04 13:21 | 27.67918 | 107.44040 | 37241 ft | 533 kts | 56° |
| 2026-05-04 13:21 | 27.71271 | 107.51515 | 37239 ft | 534 kts | 56° |
| 2026-05-04 13:22 | 27.74603 | 107.58961 | 37245 ft | 534 kts | 56° |
| 2026-05-04 13:22 | 27.77908 | 107.66356 | 37241 ft | 535 kts | 57° |
| 2026-05-04 13:23 | 27.81261 | 107.73874 | 37237 ft | 536 kts | 57° |
| 2026-05-04 13:23 | 27.84632 | 107.81375 | 37229 ft | 534 kts | 56° |
| 2026-05-04 13:24 | 27.88033 | 107.88801 | 37217 ft | 534 kts | 56° |
| 2026-05-04 13:24 | 27.91453 | 107.96283 | 37209 ft | 537 kts | 56° |
| 2026-05-04 13:25 | 27.96561 | 108.07500 | 37202 ft | 535 kts | 56° |
| 2026-05-04 13:25 | 27.99969 | 108.15001 | 37205 ft | 535 kts | 56° |
| 2026-05-04 13:26 | 28.03361 | 108.22482 | 37206 ft | 536 kts | 56° |
| 2026-05-04 13:26 | 28.06741 | 108.29950 | 37197 ft | 537 kts | 56° |
| 2026-05-04 13:27 | 28.10118 | 108.37426 | 37199 ft | 537 kts | 56° |
| 2026-05-04 13:27 | 28.13548 | 108.45033 | 37215 ft | 539 kts | 56° |
| 2026-05-04 13:28 | 28.16939 | 108.52572 | 37206 ft | 536 kts | 56° |
| 2026-05-04 13:28 | 28.20326 | 108.60111 | 37221 ft | 536 kts | 56° |
| 2026-05-04 13:29 | 28.23716 | 108.67671 | 37213 ft | 538 kts | 57° |
| 2026-05-04 13:29 | 28.27091 | 108.75215 | 37214 ft | 536 kts | 57° |
| 2026-05-04 13:30 | 28.30312 | 108.82423 | 37215 ft | 540 kts | 57° |
| 2026-05-04 13:30 | 28.33699 | 108.90024 | 37204 ft | 537 kts | 56° |
| 2026-05-04 13:31 | 28.37081 | 108.97621 | 37190 ft | 537 kts | 57° |
| 2026-05-04 13:31 | 28.40437 | 109.05176 | 37184 ft | 540 kts | 57° |
| 2026-05-04 13:32 | 28.43807 | 109.12779 | 37179 ft | 537 kts | 57° |
| 2026-05-04 13:32 | 28.47157 | 109.20359 | 37177 ft | 540 kts | 57° |
| 2026-05-04 13:33 | 28.50522 | 109.28005 | 37168 ft | 538 kts | 57° |
| 2026-05-04 13:33 | 28.53874 | 109.35628 | 37172 ft | 542 kts | 57° |
| 2026-05-04 13:34 | 28.57239 | 109.43301 | 37176 ft | 540 kts | 57° |
| 2026-05-04 13:34 | 28.60138 | 109.51217 | 37185 ft | 547 kts | 63° |
| 2026-05-04 13:35 | 28.64254 | 109.63274 | 37169 ft | 546 kts | 63° |
| 2026-05-04 13:36 | 28.67071 | 109.71354 | 37140 ft | 546 kts | 62° |
| 2026-05-04 13:36 | 28.69940 | 109.79324 | 37141 ft | 547 kts | 62° |
| 2026-05-04 13:37 | 28.72803 | 109.87304 | 37149 ft | 544 kts | 62° |
| 2026-05-04 13:37 | 28.75686 | 109.95358 | 37164 ft | 548 kts | 62° |
| 2026-05-04 13:38 | 28.78530 | 110.03333 | 37180 ft | 546 kts | 62° |
| 2026-05-04 13:38 | 28.81396 | 110.11386 | 37175 ft | 547 kts | 62° |
| 2026-05-04 13:39 | 28.84243 | 110.19406 | 37164 ft | 549 kts | 62° |
| 2026-05-04 13:39 | 28.87107 | 110.27494 | 37163 ft | 548 kts | 62° |
| 2026-05-04 13:40 | 28.89955 | 110.35555 | 37164 ft | 549 kts | 62° |
| 2026-05-04 13:40 | 28.92813 | 110.43659 | 37167 ft | 552 kts | 62° |
| 2026-05-04 13:41 | 28.95677 | 110.51804 | 37172 ft | 549 kts | 62° |
| 2026-05-04 13:41 | 28.98521 | 110.59905 | 37170 ft | 551 kts | 62° |
| 2026-05-04 13:42 | 29.02756 | 110.72008 | 37143 ft | 552 kts | 63° |
| 2026-05-04 13:42 | 29.05626 | 110.80120 | 37137 ft | 559 kts | 62° |
| 2026-05-04 13:43 | 29.08585 | 110.88460 | 37141 ft | 571 kts | 63° |
| 2026-05-04 13:43 | 29.11546 | 110.96832 | 37151 ft | 581 kts | 63° |
| 2026-05-04 13:44 | 29.14584 | 111.05449 | 37153 ft | 588 kts | 63° |
| 2026-05-04 13:44 | 29.17183 | 111.12843 | 37144 ft | 586 kts | 63° |
| 2026-05-04 13:45 | 29.20209 | 111.21469 | 37135 ft | 588 kts | 63° |
| 2026-05-04 13:45 | 29.23197 | 111.30009 | 37130 ft | 587 kts | 63° |
| 2026-05-04 13:46 | 29.26239 | 111.38717 | 37127 ft | 588 kts | 63° |
| 2026-05-04 13:46 | 29.29267 | 111.47411 | 37131 ft | 589 kts | 63° |
| 2026-05-04 13:47 | 29.32274 | 111.56064 | 37127 ft | 588 kts | 63° |
| 2026-05-04 13:47 | 29.35420 | 111.64663 | 37118 ft | 582 kts | 56° |
| 2026-05-04 13:48 | 29.39643 | 111.72467 | 37109 ft | 576 kts | 50° |
| 2026-05-04 13:48 | 29.43885 | 111.79848 | 37107 ft | 576 kts | 50° |
| 2026-05-04 13:49 | 29.48298 | 111.87554 | 37110 ft | 577 kts | 50° |
| 2026-05-04 13:49 | 29.52686 | 111.95235 | 37107 ft | 579 kts | 50° |
| 2026-05-04 13:50 | 29.57063 | 112.02921 | 37105 ft | 577 kts | 50° |
| 2026-05-04 13:50 | 29.61443 | 112.10626 | 37103 ft | 577 kts | 50° |
| 2026-05-04 13:51 | 29.65793 | 112.18298 | 37113 ft | 576 kts | 50° |
| 2026-05-04 13:51 | 29.70135 | 112.25968 | 37109 ft | 576 kts | 51° |
| 2026-05-04 13:52 | 29.76680 | 112.37579 | 37111 ft | 577 kts | 51° |
| 2026-05-04 13:53 | 29.81026 | 112.45342 | 37114 ft | 575 kts | 51° |
| 2026-05-04 13:53 | 29.85336 | 112.53055 | 37119 ft | 578 kts | 51° |
| 2026-05-04 13:54 | 29.91835 | 112.64711 | 37117 ft | 578 kts | 51° |
| 2026-05-04 13:55 | 29.98274 | 112.76291 | 37087 ft | 577 kts | 51° |
| 2026-05-04 13:55 | 30.04634 | 112.87764 | 37088 ft | 577 kts | 51° |
| 2026-05-04 13:56 | 30.08915 | 112.95503 | 37086 ft | 577 kts | 51° |
| 2026-05-04 13:57 | 30.15372 | 113.07204 | 37097 ft | 577 kts | 52° |
| 2026-05-04 13:58 | 30.23790 | 113.22459 | 37108 ft | 575 kts | 52° |
| 2026-05-04 13:58 | 30.30285 | 113.34019 | 37114 ft | 576 kts | 52° |
| 2026-05-04 13:59 | 30.34632 | 113.41780 | 37113 ft | 573 kts | 51° |
| 2026-05-04 14:00 | 30.41131 | 113.53417 | 37114 ft | 570 kts | 52° |
| 2026-05-04 14:00 | 30.45301 | 113.60916 | 37133 ft | 542 kts | 51° |
| 2026-05-04 14:00 | 30.47343 | 113.64589 | 37137 ft | 537 kts | 51° |
| 2026-05-04 14:01 | 30.51422 | 113.71919 | 37120 ft | 547 kts | 52° |
| 2026-05-04 14:01 | 30.55031 | 113.79789 | 37130 ft | 565 kts | 66° |
| 2026-05-04 14:02 | 30.56156 | 113.84162 | 37120 ft | 569 kts | 76° |
| 2026-05-04 14:02 | 30.56833 | 113.93328 | 37127 ft | 574 kts | 93° |
| 2026-05-04 14:03 | 30.56019 | 114.02513 | 37129 ft | 576 kts | 97° |
| 2026-05-04 14:03 | 30.55089 | 114.11687 | 37124 ft | 574 kts | 97° |
| 2026-05-04 14:04 | 30.53740 | 114.25427 | 37140 ft | 576 kts | 97° |
| 2026-05-04 14:04 | 30.52833 | 114.34627 | 37140 ft | 569 kts | 97° |
| 2026-05-04 14:05 | 30.51482 | 114.48275 | 37143 ft | 560 kts | 97° |
| 2026-05-04 14:06 | 30.50599 | 114.57149 | 37095 ft | 549 kts | 97° |
| 2026-05-04 14:06 | 30.50162 | 114.61530 | 36641 ft | 545 kts | 97° |
| 2026-05-04 14:06 | 30.49725 | 114.65884 | 35887 ft | 549 kts | 98° |
| 2026-05-04 14:06 | 30.49288 | 114.70237 | 35290 ft | 546 kts | 98° |
| 2026-05-04 14:07 | 30.48845 | 114.74629 | 35153 ft | 540 kts | 98° |
| 2026-05-04 14:07 | 30.47960 | 114.83349 | 35136 ft | 553 kts | 98° |
| 2026-05-04 14:08 | 30.47057 | 114.92198 | 35135 ft | 551 kts | 98° |
| 2026-05-04 14:08 | 30.46155 | 115.00983 | 35140 ft | 548 kts | 98° |
| 2026-05-04 14:08 | 30.45708 | 115.05332 | 35132 ft | 534 kts | 98° |
| 2026-05-04 14:09 | 30.44842 | 115.13702 | 35153 ft | 523 kts | 98° |
| 2026-05-04 14:10 | 30.42892 | 115.26131 | 35157 ft | 520 kts | 115° |
| 2026-05-04 14:10 | 30.39590 | 115.33424 | 35162 ft | 513 kts | 128° |
| 2026-05-04 14:11 | 30.35749 | 115.40385 | 35155 ft | 512 kts | 128° |
| 2026-05-04 14:11 | 30.29956 | 115.50769 | 35164 ft | 512 kts | 129° |
| 2026-05-04 14:12 | 30.26096 | 115.57649 | 35172 ft | 514 kts | 129° |
| 2026-05-04 14:13 | 30.20254 | 115.68027 | 35158 ft | 513 kts | 130° |
| 2026-05-04 14:13 | 30.16393 | 115.74866 | 35146 ft | 512 kts | 130° |
| 2026-05-04 14:14 | 30.12499 | 115.81748 | 35156 ft | 512 kts | 130° |
| 2026-05-04 14:14 | 30.06628 | 115.92104 | 35157 ft | 513 kts | 130° |
| 2026-05-04 14:15 | 29.98801 | 116.05864 | 35153 ft | 515 kts | 130° |
| 2026-05-04 14:16 | 29.92859 | 116.16279 | 35161 ft | 517 kts | 130° |
| 2026-05-04 14:17 | 29.86940 | 116.26629 | 35166 ft | 516 kts | 130° |
| 2026-05-04 14:18 | 29.81134 | 116.36755 | 35174 ft | 515 kts | 131° |
| 2026-05-04 14:19 | 29.73560 | 116.50771 | 35177 ft | 529 kts | 118° |
| 2026-05-04 14:19 | 29.71664 | 116.58961 | 35172 ft | 538 kts | 98° |
| 2026-05-04 14:20 | 29.71561 | 116.67620 | 35168 ft | 543 kts | 90° |
| 2026-05-04 14:20 | 29.71722 | 116.76104 | 35166 ft | 542 kts | 90° |
| 2026-05-04 14:21 | 29.71964 | 116.89238 | 35171 ft | 542 kts | 90° |
| 2026-05-04 14:21 | 29.72118 | 116.97934 | 35177 ft | 543 kts | 90° |
| 2026-05-04 14:22 | 29.72266 | 117.06586 | 35181 ft | 543 kts | 90° |
| 2026-05-04 14:22 | 29.72408 | 117.15247 | 35193 ft | 543 kts | 90° |
| 2026-05-04 14:23 | 29.72546 | 117.23830 | 34785 ft | 531 kts | 91° |
| 2026-05-04 14:23 | 29.72612 | 117.28088 | 33926 ft | 539 kts | 91° |
| 2026-05-04 14:23 | 29.72677 | 117.32481 | 32906 ft | 550 kts | 91° |
| 2026-05-04 14:24 | 29.72742 | 117.36889 | 32165 ft | 552 kts | 91° |
| 2026-05-04 14:24 | 29.72806 | 117.41247 | 31707 ft | 547 kts | 91° |
| 2026-05-04 14:24 | 29.72868 | 117.45615 | 31050 ft | 546 kts | 90° |
| 2026-05-04 14:24 | 29.72930 | 117.50015 | 30377 ft | 546 kts | 91° |
| 2026-05-04 14:25 | 29.72989 | 117.54413 | 29704 ft | 546 kts | 90° |
| 2026-05-04 14:25 | 29.73103 | 117.63114 | 28206 ft | 544 kts | 90° |
| 2026-05-04 14:25 | 29.73159 | 117.67499 | 27436 ft | 542 kts | 90° |
| 2026-05-04 14:26 | 29.73214 | 117.71843 | 26654 ft | 539 kts | 90° |
| 2026-05-04 14:26 | 29.73266 | 117.76092 | 25905 ft | 536 kts | 90° |
| 2026-05-04 14:26 | 29.73317 | 117.80393 | 25140 ft | 532 kts | 90° |
| 2026-05-04 14:26 | 29.73368 | 117.84682 | 24743 ft | 518 kts | 90° |
| 2026-05-04 14:27 | 29.73416 | 117.88716 | 24704 ft | 498 kts | 90° |
| 2026-05-04 14:27 | 29.73463 | 117.92654 | 24704 ft | 481 kts | 90° |
| 2026-05-04 14:27 | 29.73507 | 117.96521 | 24671 ft | 480 kts | 91° |
| 2026-05-04 14:27 | 29.73549 | 118.00375 | 24097 ft | 488 kts | 90° |
| 2026-05-04 14:28 | 29.73592 | 118.04283 | 23338 ft | 487 kts | 90° |
| 2026-05-04 14:28 | 29.73634 | 118.08184 | 22575 ft | 485 kts | 90° |
| 2026-05-04 14:28 | 29.73675 | 118.12004 | 21818 ft | 483 kts | 90° |
| 2026-05-04 14:28 | 29.73717 | 118.15833 | 21114 ft | 480 kts | 90° |
| 2026-05-04 14:29 | 29.73804 | 118.23306 | 20816 ft | 456 kts | 90° |
| 2026-05-04 14:29 | 29.73356 | 118.30671 | 20823 ft | 457 kts | 97° |
| 2026-05-04 14:30 | 29.73026 | 118.34296 | 20805 ft | 457 kts | 97° |
| 2026-05-04 14:30 | 29.72694 | 118.37935 | 20443 ft | 458 kts | 97° |
| 2026-05-04 14:30 | 29.72034 | 118.45189 | 19829 ft | 442 kts | 97° |
| 2026-05-04 14:31 | 29.71712 | 118.48713 | 19832 ft | 449 kts | 97° |
| 2026-05-04 14:31 | 29.71053 | 118.55905 | 19829 ft | 448 kts | 97° |
| 2026-05-04 14:32 | 29.70396 | 118.63045 | 19823 ft | 447 kts | 96° |
| 2026-05-04 14:32 | 29.70064 | 118.66635 | 19821 ft | 450 kts | 97° |
| 2026-05-04 14:32 | 29.69734 | 118.70192 | 19820 ft | 449 kts | 97° |
| 2026-05-04 14:32 | 29.69405 | 118.73798 | 19775 ft | 449 kts | 97° |
| 2026-05-04 14:33 | 29.69082 | 118.77364 | 19278 ft | 446 kts | 97° |
| 2026-05-04 14:33 | 29.68766 | 118.80862 | 18776 ft | 426 kts | 96° |
| 2026-05-04 14:33 | 29.68465 | 118.84195 | 18299 ft | 409 kts | 96° |
| 2026-05-04 14:33 | 29.68182 | 118.87310 | 17933 ft | 391 kts | 96° |
| 2026-05-04 14:34 | 29.67932 | 118.90401 | 17720 ft | 380 kts | 91° |
| 2026-05-04 14:34 | 29.68060 | 118.93460 | 17369 ft | 382 kts | 81° |
| 2026-05-04 14:34 | 29.68663 | 118.96407 | 16876 ft | 378 kts | 70° |
| 2026-05-04 14:34 | 29.69703 | 118.99176 | 16418 ft | 369 kts | 62° |
| 2026-05-04 14:35 | 29.70830 | 119.01781 | 16139 ft | 361 kts | 62° |
| 2026-05-04 14:35 | 29.71957 | 119.04371 | 15776 ft | 358 kts | 62° |
| 2026-05-04 14:35 | 29.73080 | 119.06955 | 15408 ft | 354 kts | 62° |
| 2026-05-04 14:35 | 29.74173 | 119.09470 | 15029 ft | 352 kts | 62° |
| 2026-05-04 14:36 | 29.75275 | 119.12008 | 14554 ft | 351 kts | 62° |
| 2026-05-04 14:36 | 29.76362 | 119.14512 | 14066 ft | 350 kts | 63° |
| 2026-05-04 14:36 | 29.77451 | 119.17021 | 13567 ft | 348 kts | 63° |
| 2026-05-04 14:36 | 29.78544 | 119.19544 | 13070 ft | 346 kts | 63° |
| 2026-05-04 14:37 | 29.79604 | 119.21990 | 12582 ft | 335 kts | 63° |
| 2026-05-04 14:37 | 29.80638 | 119.24377 | 12198 ft | 332 kts | 62° |
| 2026-05-04 14:37 | 29.81659 | 119.26739 | 11967 ft | 323 kts | 62° |
| 2026-05-04 14:37 | 29.82669 | 119.29071 | 11939 ft | 326 kts | 62° |
| 2026-05-04 14:38 | 29.83696 | 119.31446 | 11936 ft | 325 kts | 62° |
| 2026-05-04 14:38 | 29.84711 | 119.33794 | 11937 ft | 326 kts | 62° |
| 2026-05-04 14:38 | 29.85724 | 119.36137 | 11936 ft | 325 kts | 62° |
| 2026-05-04 14:38 | 29.86725 | 119.38454 | 11936 ft | 325 kts | 63° |
| 2026-05-04 14:39 | 29.87739 | 119.40802 | 11934 ft | 325 kts | 63° |
| 2026-05-04 14:39 | 29.88752 | 119.43149 | 11934 ft | 326 kts | 62° |
| 2026-05-04 14:39 | 29.89777 | 119.45524 | 11933 ft | 325 kts | 62° |
| 2026-05-04 14:40 | 29.91807 | 119.50230 | 11787 ft | 328 kts | 62° |
| 2026-05-04 14:40 | 29.92808 | 119.52551 | 11356 ft | 324 kts | 62° |
| 2026-05-04 14:40 | 29.93807 | 119.54867 | 10929 ft | 311 kts | 62° |
| 2026-05-04 14:40 | 29.94752 | 119.57059 | 10522 ft | 301 kts | 62° |
| 2026-05-04 14:41 | 29.95672 | 119.59195 | 10112 ft | 291 kts | 62° |
| 2026-05-04 14:41 | 29.96569 | 119.61275 | 9700 ft | 283 kts | 62° |
| 2026-05-04 14:41 | 29.98310 | 119.65313 | 8984 ft | 279 kts | 62° |
| 2026-05-04 14:42 | 30.00024 | 119.69288 | 8663 ft | 275 kts | 63° |
| 2026-05-04 14:42 | 30.00878 | 119.71265 | 8307 ft | 275 kts | 62° |
| 2026-05-04 14:42 | 30.01734 | 119.73244 | 7972 ft | 273 kts | 63° |
| 2026-05-04 14:43 | 30.02587 | 119.75213 | 7908 ft | 272 kts | 63° |
| 2026-05-04 14:43 | 30.03446 | 119.77183 | 7897 ft | 273 kts | 62° |
| 2026-05-04 14:43 | 30.04322 | 119.79127 | 7890 ft | 273 kts | 62° |
| 2026-05-04 14:43 | 30.05206 | 119.81092 | 7894 ft | 274 kts | 62° |
| 2026-05-04 14:44 | 30.06086 | 119.83048 | 7897 ft | 275 kts | 62° |
| 2026-05-04 14:44 | 30.06988 | 119.85049 | 7896 ft | 279 kts | 61° |
| 2026-05-04 14:44 | 30.07874 | 119.87015 | 7888 ft | 279 kts | 61° |
| 2026-05-04 14:44 | 30.08774 | 119.89015 | 7891 ft | 280 kts | 61° |
| 2026-05-04 14:45 | 30.09677 | 119.91022 | 7890 ft | 280 kts | 61° |
| 2026-05-04 14:45 | 30.10519 | 119.92895 | 7892 ft | 280 kts | 61° |
| 2026-05-04 14:45 | 30.11431 | 119.94923 | 7892 ft | 279 kts | 61° |
| 2026-05-04 14:45 | 30.12300 | 119.96858 | 7885 ft | 280 kts | 61° |
| 2026-05-04 14:46 | 30.13231 | 119.98930 | 7508 ft | 284 kts | 62° |
| 2026-05-04 14:46 | 30.14115 | 120.00899 | 7072 ft | 285 kts | 61° |
| 2026-05-04 14:46 | 30.15028 | 120.02937 | 6582 ft | 281 kts | 62° |
| 2026-05-04 14:46 | 30.15922 | 120.04931 | 6183 ft | 275 kts | 62° |
| 2026-05-04 14:47 | 30.16799 | 120.06887 | 5912 ft | 271 kts | 62° |
| 2026-05-04 14:47 | 30.17662 | 120.08813 | 5891 ft | 273 kts | 62° |
| 2026-05-04 14:47 | 30.18536 | 120.10767 | 5885 ft | 273 kts | 62° |
| 2026-05-04 14:47 | 30.19405 | 120.12709 | 5879 ft | 273 kts | 62° |
| 2026-05-04 14:48 | 30.20276 | 120.14658 | 5888 ft | 273 kts | 62° |
| 2026-05-04 14:48 | 30.21146 | 120.16607 | 5890 ft | 273 kts | 62° |
| 2026-05-04 14:48 | 30.22029 | 120.18591 | 5893 ft | 273 kts | 62° |
| 2026-05-04 14:48 | 30.22901 | 120.20550 | 5889 ft | 273 kts | 62° |
| 2026-05-04 14:49 | 30.23772 | 120.22508 | 5879 ft | 273 kts | 62° |
| 2026-05-04 14:49 | 30.24653 | 120.24490 | 5886 ft | 273 kts | 62° |
| 2026-05-04 14:49 | 30.25514 | 120.26426 | 5886 ft | 272 kts | 62° |
| 2026-05-04 14:49 | 30.26393 | 120.28404 | 5884 ft | 272 kts | 62° |
| 2026-05-04 14:50 | 30.27261 | 120.30358 | 5890 ft | 271 kts | 62° |
| 2026-05-04 14:50 | 30.28128 | 120.32311 | 5896 ft | 272 kts | 62° |
| 2026-05-04 14:50 | 30.28995 | 120.34265 | 5872 ft | 272 kts | 62° |
| 2026-05-04 14:50 | 30.29867 | 120.36229 | 5890 ft | 272 kts | 62° |
| 2026-05-04 14:51 | 30.30728 | 120.38171 | 5892 ft | 272 kts | 62° |
| 2026-05-04 14:51 | 30.31605 | 120.40151 | 5891 ft | 272 kts | 62° |
| 2026-05-04 14:51 | 30.32476 | 120.42117 | 5891 ft | 272 kts | 62° |
| 2026-05-04 14:51 | 30.33349 | 120.44090 | 5891 ft | 272 kts | 62° |
| 2026-05-04 14:52 | 30.34214 | 120.46045 | 5887 ft | 272 kts | 62° |
| 2026-05-04 14:52 | 30.35091 | 120.48028 | 5610 ft | 276 kts | 62° |
| 2026-05-04 14:52 | 30.35972 | 120.50020 | 5248 ft | 276 kts | 62° |
| 2026-05-04 14:52 | 30.36845 | 120.51998 | 4921 ft | 272 kts | 62° |
| 2026-05-04 14:53 | 30.37697 | 120.53928 | 4904 ft | 260 kts | 62° |
| 2026-05-04 14:53 | 30.38492 | 120.55734 | 4885 ft | 246 kts | 62° |
| 2026-05-04 14:53 | 30.39273 | 120.57507 | 4892 ft | 240 kts | 62° |
| 2026-05-04 14:53 | 30.40030 | 120.59225 | 4904 ft | 239 kts | 62° |
| 2026-05-04 14:54 | 30.40797 | 120.60964 | 4887 ft | 239 kts | 63° |
| 2026-05-04 14:54 | 30.41452 | 120.62730 | 4894 ft | 240 kts | 77° |
| 2026-05-04 14:54 | 30.41346 | 120.64636 | 4891 ft | 236 kts | 110° |
| 2026-05-04 14:54 | 30.40410 | 120.66174 | 4895 ft | 231 kts | 140° |
| 2026-05-04 14:55 | 30.39088 | 120.67226 | 4888 ft | 230 kts | 151° |
| 2026-05-04 14:55 | 30.37580 | 120.67818 | 4898 ft | 229 kts | 179° |
| 2026-05-04 14:55 | 30.36039 | 120.67381 | 4882 ft | 227 kts | 212° |
| 2026-05-04 14:55 | 30.34920 | 120.66067 | 4512 ft | 230 kts | 241° |
| 2026-05-04 14:56 | 30.34209 | 120.64425 | 4086 ft | 223 kts | 246° |
| 2026-05-04 14:56 | 30.33583 | 120.62845 | 3767 ft | 210 kts | 245° |
| 2026-05-04 14:56 | 30.32963 | 120.61365 | 3479 ft | 198 kts | 243° |
| 2026-05-04 14:56 | 30.32350 | 120.59978 | 3206 ft | 184 kts | 243° |
| 2026-05-04 14:57 | 30.31765 | 120.58678 | 2958 ft | 180 kts | 242° |
| 2026-05-04 14:57 | 30.31204 | 120.57426 | 2702 ft | 170 kts | 242° |
| 2026-05-04 14:57 | 30.30686 | 120.56265 | 2475 ft | 154 kts | 242° |
| 2026-05-04 14:57 | 30.30202 | 120.55178 | 2261 ft | 149 kts | 241° |
| 2026-05-04 14:58 | 30.29729 | 120.54114 | 2048 ft | 147 kts | 241° |
| 2026-05-04 14:58 | 30.29260 | 120.53059 | 1835 ft | 146 kts | 241° |
| 2026-05-04 14:58 | 30.28795 | 120.52013 | 1630 ft | 146 kts | 241° |
| 2026-05-04 14:58 | 30.28327 | 120.50960 | 1416 ft | 146 kts | 241° |
| 2026-05-04 14:59 | 30.27862 | 120.49912 | 1209 ft | 146 kts | 241° |
| 2026-05-04 14:59 | 30.27401 | 120.48876 | 1002 ft | 145 kts | 241° |
| 2026-05-04 14:59 | 30.26473 | 120.46789 | 596 ft | 146 kts | 242° |
| 2026-05-04 15:00 | 30.26004 | 120.45733 | 417 ft | 147 kts | 240° |
| 2026-05-04 15:00 | 30.25519 | 120.44686 | 205 ft | 147 kts | 242° |
| 2026-05-04 15:00 | 30.25064 | 120.43649 | 46 ft | 144 kts | 242° |
| 2026-05-04 15:01 | 30.24380 | 120.42099 | 35 ft | 56 kts | 243° |
| 2026-05-04 15:01 | 30.24259 | 120.41908 | 35 ft | 17 kts | 224° |
| 2026-05-04 15:01 | 30.24158 | 120.41811 | 35 ft | 12 kts | 215° |
| 2026-05-04 15:01 | 30.24104 | 120.41791 | 35 ft | 3 kts | 155° |
| 2026-05-04 15:02 | 30.24083 | 120.41821 | 35 ft | 5 kts | 112° |
| 2026-05-04 15:02 | 30.24083 | 120.41871 | 35 ft | 6 kts | 72° |
| 2026-05-04 15:02 | 30.24111 | 120.41925 | 35 ft | 8 kts | 56° |
| 2026-05-04 15:02 | 30.24141 | 120.41982 | 35 ft | 0 kts | 62° |
| 2026-05-04 15:03 | 30.24150 | 120.42002 | 35 ft | 7 kts | 62° |
| 2026-05-04 15:03 | 30.24171 | 120.42075 | 35 ft | 10 kts | 92° |
| 2026-05-04 15:04 | 30.24128 | 120.42139 | 35 ft | 10 kts | 148° |
| 2026-05-04 15:04 | 30.24069 | 120.42174 | 35 ft | 8 kts | 166° |
| 2026-05-04 15:04 | 30.24020 | 120.42147 | 35 ft | 8 kts | 232° |
| 2026-05-04 15:04 | 30.23973 | 120.42116 | 35 ft | 7 kts | 178° |
| 2026-05-04 15:05 | 30.23920 | 120.42137 | 35 ft | 8 kts | 154° |
| 2026-05-04 15:05 | 30.23874 | 120.42154 | 35 ft | 6 kts | 190° |
| 2026-05-04 15:05 | 30.23839 | 120.42123 | 35 ft | 6 kts | 232° |
| 2026-05-04 15:05 | 30.23817 | 120.42091 | 35 ft | 0 kts | 231° |